Time;durP1;ratioP1;P1;durP2;ratioP2;P2;SDS_P1;SDS_P2;PMS_P1;PMS_P2;Temp;Humidity;BMP_temperature;BMP_pressure;BME280_temperature;BME280_humidity;BME280_pressure;Samples;Min_cycle;Max_cycle;Signal;HPM_P1;HPM_P2
2022/06/14 00:02:51;;;;;;;13.23;2.67;;;9.60;99.90;;;;;;5059912;28;20055;-80
2022/06/14 00:05:17;;;;;;;9.90;2.97;;;9.60;99.90;;;;;;5051456;28;20033;-81
2022/06/14 00:07:43;;;;;;;15.07;3.42;;;9.70;99.90;;;;;;5064351;28;20048;-81
2022/06/14 00:10:09;;;;;;;16.50;3.38;;;9.70;99.90;;;;;;5073574;28;20037;-80
2022/06/14 00:12:35;;;;;;;13.32;3.85;;;9.70;99.90;;;;;;5071899;28;20571;-81
2022/06/14 00:15:00;;;;;;;14.90;3.25;;;9.70;99.90;;;;;;5072133;28;20075;-81
2022/06/14 00:17:26;;;;;;;14.05;3.22;;;9.70;99.90;;;;;;5073023;28;20488;-81
2022/06/14 00:19:52;;;;;;;10.85;3.03;;;9.70;99.90;;;;;;5072684;28;20072;-80
2022/06/14 00:22:18;;;;;;;12.75;3.35;;;9.70;99.90;;;;;;5070218;28;20044;-80
2022/06/14 00:24:43;;;;;;;14.13;3.10;;;9.70;99.90;;;;;;5052653;28;20045;-81
2022/06/14 00:27:09;;;;;;;10.20;3.38;;;9.70;99.90;;;;;;5051306;28;20045;-80
2022/06/14 00:29:35;;;;;;;9.85;3.30;;;9.70;99.90;;;;;;5069707;28;20438;-80
2022/06/14 00:32:00;;;;;;;13.60;3.85;;;9.70;99.90;;;;;;5072742;28;20036;-80
2022/06/14 00:34:26;;;;;;;11.70;3.78;;;9.70;99.90;;;;;;5071010;28;20083;-81
2022/06/14 00:36:54;;;;;;;11.88;2.70;;;9.70;99.90;;;;;;5071201;28;20052;-81
2022/06/14 00:39:21;;;;;;;10.05;3.17;;;9.70;99.90;;;;;;5076175;28;20079;-81
2022/06/14 00:41:51;;;;;;;11.02;3.33;;;9.70;99.90;;;;;;5058132;28;20036;-81
2022/06/14 00:44:21;;;;;;;13.93;3.72;;;9.70;99.90;;;;;;5075700;28;20119;-81
2022/06/14 00:47:10;;;;;;;13.95;3.70;;;9.70;99.90;;;;;;5076547;28;20044;-81
2022/06/14 00:49:42;;;;;;;14.90;3.42;;;9.60;99.90;;;;;;5076021;28;20037;-81
2022/06/14 00:52:26;;;;;;;14.75;3.50;;;9.60;99.90;;;;;;5076676;28;20055;-81
2022/06/14 00:54:59;;;;;;;16.20;3.40;;;9.50;99.90;;;;;;5076251;28;20048;-81
2022/06/14 00:57:29;;;;;;;16.13;3.78;;;9.50;99.90;;;;;;5074748;28;20105;-81
2022/06/14 01:00:00;;;;;;;11.38;3.10;;;9.50;99.90;;;;;;5076855;28;20078;-81
2022/06/14 01:02:30;;;;;;;7.85;3.00;;;9.50;99.90;;;;;;5075340;28;20052;-81
2022/06/14 01:04:59;;;;;;;12.55;4.22;;;9.40;99.90;;;;;;5075791;28;20044;-81
2022/06/14 01:07:31;;;;;;;11.90;3.45;;;9.40;99.90;;;;;;5055497;28;20048;-81
2022/06/14 01:10:06;;;;;;;22.65;3.75;;;9.30;99.90;;;;;;5056637;28;20500;-81
2022/06/14 01:12:35;;;;;;;20.73;3.70;;;9.30;99.90;;;;;;5062234;28;20059;-81
2022/06/14 01:15:21;;;;;;;14.43;3.33;;;9.20;99.90;;;;;;5076346;28;20391;-81
2022/06/14 01:17:53;;;;;;;14.88;3.72;;;9.30;99.90;;;;;;5076007;28;20051;-81
2022/06/14 01:20:22;;;;;;;15.13;4.32;;;9.30;99.90;;;;;;5065351;28;20045;-81
2022/06/14 01:22:49;;;;;;;10.75;3.50;;;9.30;99.90;;;;;;5074418;28;20087;-81
2022/06/14 01:25:15;;;;;;;15.45;3.63;;;9.30;99.90;;;;;;5071726;28;20049;-81
2022/06/14 01:27:42;;;;;;;13.20;3.63;;;9.30;99.90;;;;;;5062352;28;20083;-81
2022/06/14 01:30:10;;;;;;;15.00;4.00;;;9.20;99.90;;;;;;5056523;28;20127;-81
2022/06/14 01:32:53;;;;;;;9.50;3.53;;;9.20;99.90;;;;;;5075953;28;20045;-81
2022/06/14 01:35:32;;;;;;;12.85;3.25;;;9.20;99.90;;;;;;5074215;28;20052;-81
2022/06/14 01:38:00;;;;;;;11.13;3.70;;;9.10;99.90;;;;;;5075288;28;20094;-81
2022/06/14 01:40:42;;;;;;;7.05;2.83;;;9.20;99.90;;;;;;5074284;28;20037;-81
2022/06/14 01:43:32;;;;;;;8.07;3.15;;;9.10;99.90;;;;;;5076071;28;20048;-81
2022/06/14 01:45:57;;;;;;;11.98;3.55;;;9.20;99.90;;;;;;5078544;28;20403;-81
2022/06/14 01:48:43;;;;;;;12.65;3.70;;;9.10;99.90;;;;;;5075421;28;20147;-81
2022/06/14 01:54:17;;;;;;;15.40;3.60;;;9.10;99.90;;;;;;5075179;28;20197;-81
2022/06/14 01:56:47;;;;;;;12.00;3.55;;;9.10;99.90;;;;;;5074621;28;20058;-81
2022/06/14 01:59:34;;;;;;;10.93;3.65;;;9.10;99.90;;;;;;5072703;28;20060;-81
2022/06/14 02:02:22;;;;;;;18.40;4.30;;;9.10;99.90;;;;;;5074312;28;20127;-81
2022/06/14 02:05:18;;;;;;;9.95;3.17;;;9.10;99.90;;;;;;5073092;28;20392;-81
2022/06/14 02:07:55;;;;;;;15.02;3.67;;;9.00;99.90;;;;;;5074040;28;20047;-81
2022/06/14 02:10:42;;;;;;;9.15;3.45;;;9.00;99.90;;;;;;5075118;28;20369;-81
2022/06/14 02:13:25;;;;;;;11.52;4.32;;;9.00;99.90;;;;;;5054629;28;20052;-81
2022/06/14 02:16:05;;;;;;;12.90;3.97;;;9.00;99.90;;;;;;5053941;28;20049;-81
2022/06/14 02:18:43;;;;;;;14.55;3.90;;;9.00;99.90;;;;;;5055437;28;20465;-80
2022/06/14 02:21:16;;;;;;;11.48;4.80;;;9.00;99.90;;;;;;5075207;28;20045;-81
2022/06/14 02:23:48;;;;;;;14.00;4.10;;;9.00;99.90;;;;;;5056002;28;20395;-81
2022/06/14 02:26:20;;;;;;;8.00;3.78;;;9.00;99.90;;;;;;5068509;28;20051;-81
2022/06/14 02:29:16;;;;;;;14.07;3.78;;;9.00;99.90;;;;;;5074597;28;20054;-81
2022/06/14 02:31:50;;;;;;;11.55;3.78;;;9.00;99.90;;;;;;5073312;28;20530;-81
2022/06/14 02:34:22;;;;;;;15.45;4.75;;;9.00;99.90;;;;;;5036469;28;20052;-81
2022/06/14 02:37:16;;;;;;;16.73;4.40;;;9.00;99.90;;;;;;5054529;28;20037;-81
2022/06/14 02:39:50;;;;;;;13.13;4.20;;;9.00;99.90;;;;;;5083110;28;20056;-81
2022/06/14 02:42:27;;;;;;;10.57;4.47;;;8.90;99.90;;;;;;5074387;28;20048;-81
2022/06/14 02:45:12;;;;;;;20.80;4.85;;;8.90;99.90;;;;;;5074849;28;20283;-81
2022/06/14 02:47:47;;;;;;;13.60;4.88;;;9.00;99.90;;;;;;5073569;28;20047;-81
2022/06/14 02:50:20;;;;;;;8.55;3.90;;;9.00;99.90;;;;;;5074846;28;20057;-81
2022/06/14 02:52:56;;;;;;;14.93;4.53;;;9.00;99.90;;;;;;5073882;28;20496;-81
2022/06/14 02:55:53;;;;;;;15.52;4.63;;;9.00;99.90;;;;;;5072169;28;20411;-81
2022/06/14 02:58:25;;;;;;;15.75;5.07;;;9.00;99.90;;;;;;5072896;28;20053;-81
2022/06/14 03:00:59;;;;;;;11.38;4.90;;;9.00;99.90;;;;;;5070336;28;20125;-81
2022/06/14 03:03:31;;;;;;;11.30;4.75;;;9.00;99.90;;;;;;5074352;28;20047;-81
2022/06/14 03:06:06;;;;;;;16.10;5.22;;;9.00;99.90;;;;;;5066009;28;20048;-81
2022/06/14 03:09:00;;;;;;;10.15;4.50;;;9.00;99.90;;;;;;5065950;28;20137;-81
2022/06/14 03:11:48;;;;;;;13.85;5.32;;;9.00;99.90;;;;;;5054205;28;20419;-81
2022/06/14 03:14:30;;;;;;;12.10;4.50;;;9.00;99.90;;;;;;5057948;28;20124;-81
2022/06/14 03:17:34;;;;;;;12.35;5.18;;;9.00;99.90;;;;;;5072165;28;20115;-81
2022/06/14 03:20:10;;;;;;;17.52;4.78;;;8.70;99.90;;;;;;5073808;28;20454;-81
2022/06/14 03:22:56;;;;;;;14.23;4.90;;;9.00;99.90;;;;;;5071700;28;20488;-81
2022/06/14 03:25:45;;;;;;;10.98;4.72;;;9.00;99.90;;;;;;5062400;28;20041;-81
2022/06/14 03:28:18;;;;;;;10.13;4.68;;;9.00;99.90;;;;;;5053103;28;20049;-81
2022/06/14 03:30:51;;;;;;;10.02;4.38;;;8.90;99.90;;;;;;5066265;28;20135;-81
2022/06/14 03:33:33;;;;;;;17.20;6.28;;;8.90;99.90;;;;;;5074054;28;20068;-81
2022/06/14 03:36:00;;;;;;;13.65;4.68;;;9.00;99.90;;;;;;5071452;28;20045;-81
2022/06/14 03:38:39;;;;;;;15.00;5.43;;;9.00;99.90;;;;;;5073731;28;20387;-81
2022/06/14 03:41:07;;;;;;;13.75;4.90;;;9.00;99.90;;;;;;5071970;28;20071;-81
2022/06/14 03:43:35;;;;;;;15.70;5.82;;;8.90;99.90;;;;;;5071651;28;20488;-81
2022/06/14 03:46:05;;;;;;;13.25;4.57;;;8.90;99.90;;;;;;5071432;28;20041;-81
2022/06/14 03:48:34;;;;;;;10.55;4.80;;;8.90;99.90;;;;;;5072561;28;20123;-81
2022/06/14 03:51:11;;;;;;;17.98;5.40;;;9.00;99.90;;;;;;5054574;28;20369;-81
2022/06/14 03:53:45;;;;;;;14.70;5.40;;;9.00;99.90;;;;;;5072251;28;20111;-81
2022/06/14 03:56:38;;;;;;;11.10;5.03;;;9.00;99.90;;;;;;5071911;28;20049;-81
2022/06/14 03:59:13;;;;;;;10.75;4.72;;;9.00;99.90;;;;;;5071407;28;20040;-81
2022/06/14 04:02:09;;;;;;;11.57;4.65;;;9.00;99.90;;;;;;5072281;28;20052;-81
2022/06/14 04:04:41;;;;;;;14.38;5.20;;;9.00;99.90;;;;;;5061781;28;20049;-81
2022/06/14 04:07:19;;;;;;;13.20;5.35;;;9.00;99.90;;;;;;5063762;28;20080;-81
2022/06/14 04:10:13;;;;;;;11.82;4.95;;;9.00;99.90;;;;;;5073480;28;20400;-81
2022/06/14 04:13:10;;;;;;;13.57;4.90;;;9.10;99.90;;;;;;5067178;28;20055;-81
2022/06/14 04:15:53;;;;;;;11.27;5.65;;;9.10;99.90;;;;;;5052425;28;20075;-81
2022/06/14 04:18:38;;;;;;;15.75;5.38;;;9.20;99.90;;;;;;5083034;28;20053;-81
2022/06/14 04:21:22;;;;;;;;;;;9.20;99.90;;;;;;5072402;28;20068;-81
2022/06/14 04:24:07;;;;;;;14.15;4.90;;;9.20;99.90;;;;;;5054973;28;19925;-81
2022/06/14 04:26:50;;;;;;;10.43;5.57;;;9.30;99.90;;;;;;5052515;28;20504;-81
2022/06/14 04:29:25;;;;;;;15.07;4.95;;;9.30;99.90;;;;;;5052048;28;20057;-81
2022/06/14 04:32:15;;;;;;;22.35;5.82;;;9.40;99.90;;;;;;5053371;28;20416;-81
2022/06/14 04:34:59;;;;;;;14.82;5.25;;;9.40;99.90;;;;;;5072000;28;20059;-81
2022/06/14 04:37:31;;;;;;;12.65;4.82;;;9.60;99.90;;;;;;5071128;28;20055;-81
2022/06/14 04:40:12;;;;;;;11.90;4.82;;;9.60;99.90;;;;;;5071079;28;20044;-81
2022/06/14 04:42:47;;;;;;;12.07;4.95;;;9.80;99.90;;;;;;5072661;28;20131;-81
2022/06/14 04:45:22;;;;;;;8.68;4.32;;;9.90;99.90;;;;;;5071484;28;20106;-81
2022/06/14 04:48:08;;;;;;;;;;;10.00;99.90;;;;;;5054304;28;20076;-80
2022/06/14 04:50:45;;;;;;;19.02;5.20;;;10.10;99.90;;;;;;5071745;28;20407;-81
2022/06/14 04:53:20;;;;;;;13.52;4.47;;;10.20;99.90;;;;;;5070176;28;20044;-81
2022/06/14 04:55:57;;;;;;;15.02;6.35;;;10.40;99.90;;;;;;5072994;28;20124;-81
2022/06/14 04:58:34;;;;;;;15.57;5.00;;;10.50;99.90;;;;;;5071119;28;20052;-80
2022/06/14 05:01:07;;;;;;;11.48;5.15;;;10.60;99.90;;;;;;5074227;28;20036;-80
2022/06/14 05:03:55;;;;;;;16.55;5.30;;;10.70;99.90;;;;;;5075262;28;20045;-81
2022/06/14 05:06:31;;;;;;;14.30;4.97;;;10.80;99.90;;;;;;5070413;28;20553;-81
2022/06/14 05:09:06;;;;;;;10.38;4.60;;;10.90;99.90;;;;;;5068853;28;20097;-81
2022/06/14 05:11:48;;;;;;;15.20;5.53;;;11.10;99.90;;;;;;5072647;28;20045;-81
2022/06/14 05:14:20;;;;;;;13.30;4.13;;;11.20;99.90;;;;;;5070808;28;20048;-81
2022/06/14 05:16:56;;;;;;;9.77;3.92;;;11.30;99.90;;;;;;5070801;28;20396;-81
2022/06/14 05:19:59;;;;;;;11.25;4.43;;;11.40;99.90;;;;;;5071866;28;20052;-81
2022/06/14 05:22:36;;;;;;;14.07;4.47;;;11.50;99.90;;;;;;5071722;28;20049;-81
2022/06/14 05:25:05;;;;;;;13.90;3.97;;;11.50;99.90;;;;;;5071765;28;20055;-81
2022/06/14 05:27:42;;;;;;;15.48;4.28;;;11.60;99.90;;;;;;5076455;28;20041;-81
2022/06/14 05:30:38;;;;;;;7.45;3.35;;;11.70;99.90;;;;;;5075148;28;20041;-82
2022/06/14 05:33:20;;;;;;;9.15;3.80;;;11.80;99.90;;;;;;5075028;28;20040;-81
2022/06/14 05:36:09;;;;;;;14.07;3.90;;;11.80;99.90;;;;;;5074049;28;20041;-81
2022/06/14 05:38:56;;;;;;;11.48;3.45;;;11.80;99.90;;;;;;5075527;28;20087;-81
2022/06/14 05:41:26;;;;;;;10.20;4.30;;;11.90;99.90;;;;;;5074741;28;20492;-81
2022/06/14 05:44:06;;;;;;;13.52;4.15;;;12.00;99.90;;;;;;5078016;28;20495;-82
2022/06/14 05:46:41;;;;;;;19.05;4.07;;;12.10;99.90;;;;;;5077198;28;20463;-83
2022/06/14 05:49:15;;;;;;;11.60;3.80;;;12.20;99.90;;;;;;5074570;28;20048;-83
2022/06/14 05:51:50;;;;;;;13.45;4.07;;;12.30;99.90;;;;;;5075107;28;20047;-82
2022/06/14 05:54:38;;;;;;;8.95;3.55;;;12.40;99.90;;;;;;5075981;28;20040;-83
2022/06/14 05:57:28;;;;;;;5.93;3.60;;;12.50;99.90;;;;;;5073221;28;20060;-83
2022/06/14 06:00:16;;;;;;;11.60;3.75;;;12.60;99.90;;;;;;5068096;28;20055;-81
2022/06/14 06:03:08;;;;;;;9.73;3.30;;;12.70;99.90;;;;;;5079841;28;20059;-82
2022/06/14 06:05:47;;;;;;;10.25;3.13;;;12.90;99.90;;;;;;5072391;28;20388;-82
2022/06/14 06:08:31;;;;;;;8.95;3.35;;;13.00;99.90;;;;;;5073394;28;20048;-83
2022/06/14 06:11:06;;;;;;;12.20;3.30;;;13.10;99.90;;;;;;5074299;28;20148;-82
2022/06/14 06:13:45;;;;;;;11.20;3.05;;;13.20;99.90;;;;;;5075412;28;20499;-82
2022/06/14 06:16:16;;;;;;;17.77;3.10;;;13.30;99.90;;;;;;5074044;28;20137;-81
2022/06/14 06:18:52;;;;;;;14.13;3.20;;;13.40;99.90;;;;;;5079141;28;20047;-82
2022/06/14 06:21:26;;;;;;;11.70;2.88;;;13.50;99.90;;;;;;5074173;28;20127;-82
2022/06/14 06:24:08;;;;;;;9.77;2.58;;;13.60;99.90;;;;;;5075086;28;20048;-81
2022/06/14 06:26:38;;;;;;;13.80;3.00;;;13.80;99.90;;;;;;5074307;28;20050;-81
2022/06/14 06:29:16;;;;;;;10.15;2.95;;;13.90;99.90;;;;;;5074778;28;20514;-82
2022/06/14 06:31:43;;;;;;;10.93;2.40;;;14.00;99.90;;;;;;5072218;28;20046;-81
2022/06/14 06:34:11;;;;;;;8.20;3.00;;;14.10;99.90;;;;;;5073297;28;20051;-81
2022/06/14 06:37:03;;;;;;;10.43;2.70;;;14.20;99.90;;;;;;5075273;28;20080;-82
2022/06/14 06:39:51;;;;;;;6.93;2.45;;;14.30;99.90;;;;;;5054013;28;20507;-82
2022/06/14 06:42:35;;;;;;;6.50;2.03;;;14.30;99.90;;;;;;5053003;28;20048;-82
2022/06/14 06:45:10;;;;;;;10.60;2.17;;;14.50;99.90;;;;;;5054523;28;20485;-82
2022/06/14 06:47:44;;;;;;;11.20;3.47;;;14.60;99.90;;;;;;5072326;28;20048;-81
2022/06/14 06:50:19;;;;;;;6.30;1.80;;;14.60;99.90;;;;;;5074642;28;20498;-82
2022/06/14 06:53:03;;;;;;;6.72;1.75;;;14.80;99.90;;;;;;5084278;28;20131;-82
2022/06/14 06:55:45;;;;;;;6.00;1.90;;;14.90;99.90;;;;;;5094966;28;20122;-82
2022/06/14 06:58:16;;;;;;;9.27;1.70;;;14.90;99.90;;;;;;5093517;28;20131;-82
2022/06/14 07:00:45;;;;;;;8.32;2.03;;;15.00;99.90;;;;;;5087196;28;20044;-83
2022/06/14 07:03:40;;;;;;;8.48;1.83;;;15.10;99.90;;;;;;5073058;28;20097;-81
2022/06/14 07:06:07;;;;;;;;;;;15.20;99.90;;;;;;5073456;28;20161;-82
2022/06/14 07:08:43;;;;;;;10.60;2.22;;;15.30;99.90;;;;;;5072810;28;19928;-82
2022/06/14 07:11:13;;;;;;;8.98;2.67;;;15.40;99.90;;;;;;5072866;28;20052;-82
2022/06/14 07:13:56;;;;;;;6.50;1.75;;;15.50;99.90;;;;;;5073168;28;20055;-82
2022/06/14 07:16:30;;;;;;;7.10;1.60;;;15.60;99.90;;;;;;5072576;28;20052;-82
2022/06/14 07:19:21;;;;;;;5.93;1.67;;;15.10;99.90;;;;;;5073841;28;20127;-81
2022/06/14 07:21:58;;;;;;;7.68;1.38;;;15.60;99.90;;;;;;5073230;28;20119;-81
2022/06/14 07:24:30;;;;;;;8.00;1.50;;;15.70;99.90;;;;;;5073792;28;20050;-82
2022/06/14 07:27:14;;;;;;;5.35;2.13;;;15.80;99.90;;;;;;5073042;28;20105;-85
2022/06/14 07:29:44;;;;;;;6.75;1.65;;;15.90;99.90;;;;;;5071541;28;20072;-81
2022/06/14 07:32:17;;;;;;;6.07;1.20;;;15.90;99.90;;;;;;5071913;28;20055;-82
2022/06/14 07:34:44;;;;;;;9.38;1.90;;;15.90;99.90;;;;;;5073083;28;20044;-82
2022/06/14 07:37:33;;;;;;;7.10;1.75;;;16.00;99.90;;;;;;5054785;28;20548;-81
2022/06/14 07:40:08;;;;;;;7.93;1.48;;;15.90;99.90;;;;;;5072406;28;20127;-82
2022/06/14 07:43:00;;;;;;;6.30;1.55;;;15.80;99.90;;;;;;5074678;28;20048;-82
2022/06/14 07:45:34;;;;;;;10.27;2.30;;;15.90;99.90;;;;;;5083203;28;20048;-81
2022/06/14 07:48:03;;;;;;;4.72;2.17;;;16.00;99.90;;;;;;5071865;28;20087;-82
2022/06/14 07:50:49;;;;;;;5.72;1.38;;;16.20;99.90;;;;;;5072715;28;20040;-82
2022/06/14 07:53:33;;;;;;;3.95;1.20;;;16.30;99.90;;;;;;5073421;28;20055;-83
2022/06/14 07:56:08;;;;;;;6.18;1.10;;;16.40;99.90;;;;;;5071439;28;20048;-83
2022/06/14 07:58:33;;;;;;;;;;;16.40;99.90;;;;;;5074122;28;20388;-87
2022/06/14 08:01:09;;;;;;;6.30;1.90;;;16.30;99.90;;;;;;5087081;28;19926;-81
2022/06/14 08:03:49;;;;;;;9.55;1.77;;;16.10;99.90;;;;;;5082776;28;20079;-82
2022/06/14 08:06:28;;;;;;;4.28;1.20;;;16.10;99.90;;;;;;5083130;28;20107;-81
2022/06/14 08:09:04;;;;;;;7.30;1.77;;;16.10;99.90;;;;;;5060582;28;20124;-82
2022/06/14 08:11:43;;;;;;;8.55;2.08;;;16.20;99.90;;;;;;5052171;28;20053;-82
2022/06/14 08:14:16;;;;;;;7.60;1.55;;;16.40;99.90;;;;;;5067898;28;20052;-80
2022/06/14 08:16:44;;;;;;;4.85;1.73;;;16.50;99.90;;;;;;5071691;28;20047;-81
2022/06/14 08:19:19;;;;;;;5.68;1.20;;;16.70;99.90;;;;;;5065472;28;20062;-81
2022/06/14 08:21:49;;;;;;;5.75;1.65;;;16.80;99.90;;;;;;5072297;28;20059;-81
2022/06/14 08:24:21;;;;;;;5.05;1.10;;;16.70;99.90;;;;;;5070981;28;20447;-81
2022/06/14 08:27:01;;;;;;;4.65;1.48;;;16.70;99.90;;;;;;5071865;28;20043;-81
2022/06/14 08:29:43;;;;;;;5.63;1.15;;;16.50;99.90;;;;;;5071265;28;20101;-81
2022/06/14 08:32:27;;;;;;;3.45;0.85;;;16.40;99.90;;;;;;5062994;28;20047;-81
2022/06/14 08:35:09;;;;;;;8.27;1.67;;;16.30;99.90;;;;;;5072109;28;20044;-81
2022/06/14 08:37:45;;;;;;;3.42;1.20;;;16.20;99.90;;;;;;5056635;28;20049;-81
2022/06/14 08:40:33;;;;;;;6.03;1.67;;;16.20;99.90;;;;;;5034634;28;20040;-81
2022/06/14 08:43:08;;;;;;;6.72;1.77;;;16.30;99.90;;;;;;5069533;28;20072;-81
2022/06/14 08:45:53;;;;;;;3.88;1.38;;;16.40;99.90;;;;;;5070499;28;20045;-81
2022/06/14 08:48:37;;;;;;;3.88;1.35;;;16.70;99.90;;;;;;5084477;28;20057;-81
2022/06/14 08:51:10;;;;;;;5.60;1.00;;;16.80;99.90;;;;;;5068607;28;20044;-82
2022/06/14 08:53:57;;;;;;;5.25;1.23;;;16.90;99.90;;;;;;5051934;28;20453;-80
2022/06/14 08:56:35;;;;;;;6.72;0.98;;;16.90;99.90;;;;;;5054371;28;20044;-81
2022/06/14 08:59:04;;;;;;;6.93;1.00;;;16.90;99.90;;;;;;5074938;28;20457;-81
2022/06/14 09:01:30;;;;;;;3.05;1.10;;;16.90;99.90;;;;;;5075257;28;20040;-81
2022/06/14 09:04:16;;;;;;;3.95;1.00;;;16.90;99.90;;;;;;5073945;28;20051;-81
2022/06/14 09:07:19;;;;;;;3.53;0.93;;;17.00;99.90;;;;;;5054068;28;20049;-81
2022/06/14 09:09:53;;;;;;;2.97;1.00;;;17.00;99.90;;;;;;5081897;28;20045;-81
2022/06/14 09:12:31;;;;;;;3.78;1.35;;;17.10;99.90;;;;;;5076129;28;20496;-81
2022/06/14 09:15:12;;;;;;;5.45;0.80;;;17.10;99.90;;;;;;5074179;28;20090;-82
2022/06/14 09:18:05;;;;;;;2.92;0.80;;;17.20;99.90;;;;;;5077543;28;20083;-81
2022/06/14 09:20:37;;;;;;;2.65;1.02;;;17.40;99.90;;;;;;5073684;28;20519;-81
2022/06/14 09:23:18;;;;;;;1.48;0.77;;;17.40;99.90;;;;;;5076056;28;20041;-82
2022/06/14 09:26:26;;;;;;;10.38;2.10;;;17.30;99.90;;;;;;5087318;28;20044;-81
2022/06/14 09:29:21;;;;;;;2.50;1.25;;;17.30;99.90;;;;;;5055982;28;20487;-80
2022/06/14 09:32:24;;;;;;;2.75;1.05;;;17.20;99.90;;;;;;5071157;28;20044;-81
2022/06/14 09:35:26;;;;;;;1.48;1.08;;;17.20;99.90;;;;;;5054079;28;20056;-81
2022/06/14 09:38:01;;;;;;;3.40;1.30;;;17.20;99.90;;;;;;5061554;28;20044;-82
2022/06/14 09:40:33;;;;;;;2.10;1.08;;;17.20;99.90;;;;;;5072287;28;20507;-82
2022/06/14 09:43:14;;;;;;;5.50;1.45;;;17.20;99.90;;;;;;5070646;28;20049;-81
2022/06/14 09:45:58;;;;;;;6.65;1.35;;;17.20;99.90;;;;;;5055977;28;20378;-81
2022/06/14 09:48:54;;;;;;;6.47;1.20;;;17.20;99.90;;;;;;5072515;28;20045;-80
2022/06/14 09:51:26;;;;;;;4.75;1.60;;;17.20;99.90;;;;;;5074416;28;20068;-82
2022/06/14 09:54:06;;;;;;;6.05;1.52;;;17.20;99.90;;;;;;5072914;28;20533;-81
2022/06/14 09:56:54;;;;;;;5.72;1.15;;;17.30;99.90;;;;;;5073449;28;20098;-82
2022/06/14 09:59:20;;;;;;;7.00;1.00;;;17.40;99.90;;;;;;5061780;28;20048;-81
2022/06/14 10:02:00;;;;;;;5.20;1.42;;;17.50;99.90;;;;;;5055523;28;20046;-81
2022/06/14 10:04:41;;;;;;;3.83;1.00;;;17.80;99.90;;;;;;5084371;28;20055;-82
2022/06/14 10:07:29;;;;;;;6.65;1.08;;;17.90;99.90;;;;;;5075354;28;20044;-81
2022/06/14 10:09:55;;;;;;;10.27;1.40;;;18.00;99.90;;;;;;5036322;28;20061;-82
2022/06/14 10:12:39;;;;;;;4.72;1.13;;;18.00;99.90;;;;;;5057605;28;20063;-81
2022/06/14 10:15:13;;;;;;;2.75;0.93;;;18.10;99.90;;;;;;5054401;28;20392;-81
2022/06/14 10:18:00;;;;;;;5.82;1.10;;;18.00;99.90;;;;;;5063792;28;20045;-82
2022/06/14 10:20:45;;;;;;;4.38;1.42;;;18.00;99.90;;;;;;5062643;28;20442;-82
2022/06/14 10:23:38;;;;;;;5.10;1.10;;;18.00;99.90;;;;;;5072712;28;20052;-82
2022/06/14 10:29:21;;;;;;;6.55;1.20;;;18.10;99.90;;;;;;5090281;28;20056;-82
2022/06/14 10:32:29;;;;;;;4.88;1.85;;;18.20;99.90;;;;;;5052652;28;20082;-82
2022/06/14 10:35:09;;;;;;;3.10;1.23;;;18.40;99.90;;;;;;5043899;28;20065;-82
2022/06/14 10:37:50;;;;;;;7.90;1.38;;;18.70;99.90;;;;;;5085442;28;20432;-81
2022/06/14 10:40:45;;;;;;;5.07;1.80;;;18.90;99.90;;;;;;5070200;28;20388;-80
2022/06/14 10:43:26;;;;;;;5.82;2.13;;;18.80;99.90;;;;;;5071782;28;20150;-81
2022/06/14 10:46:27;;;;;;;2.08;1.02;;;18.50;99.90;;;;;;5070358;28;20373;-81
2022/06/14 10:49:11;;;;;;;3.80;1.10;;;18.30;99.90;;;;;;5052931;28;20503;-82
2022/06/14 10:52:18;;;;;;;3.97;1.20;;;18.10;99.90;;;;;;5053587;28;20056;-82
2022/06/14 10:55:05;;;;;;;3.42;1.30;;;18.00;99.90;;;;;;5054838;28;20102;-82
2022/06/14 10:58:01;;;;;;;8.55;2.22;;;17.80;99.90;;;;;;5054491;28;20051;-81
2022/06/14 11:00:41;;;;;;;;;;;17.70;99.90;;;;;;5052871;28;20488;-81
2022/06/14 11:03:19;;;;;;;4.45;1.08;;;17.50;99.90;;;;;;5069669;28;20264;-81
2022/06/14 11:06:15;;;;;;;5.00;1.27;;;17.50;99.90;;;;;;5074327;28;20173;-81
2022/06/14 11:08:52;;;;;;;3.83;1.20;;;17.50;99.90;;;;;;5072888;28;20040;-81
2022/06/14 11:11:29;;;;;;;5.00;1.40;;;17.60;99.90;;;;;;5072846;28;20053;-81
2022/06/14 11:14:12;;;;;;;4.45;1.20;;;17.60;99.90;;;;;;5072696;28;20045;-81
2022/06/14 11:17:03;;;;;;;4.80;1.48;;;17.60;99.90;;;;;;5072409;28;20040;-82
2022/06/14 11:19:58;;;;;;;3.25;1.33;;;17.70;99.90;;;;;;5066236;28;20486;-82
2022/06/14 11:22:36;;;;;;;;;;;17.70;99.90;;;;;;5052485;28;20506;-81
2022/06/14 11:25:29;;;;;;;4.53;1.63;;;17.80;99.90;;;;;;5064092;28;19921;-82
2022/06/14 11:28:18;;;;;;;7.57;1.73;;;17.80;99.90;;;;;;5069644;28;20052;-82
2022/06/14 11:31:12;;;;;;;5.50;1.75;;;17.70;99.90;;;;;;5071708;28;20522;-81
2022/06/14 11:33:50;;;;;;;13.43;1.55;;;17.80;99.90;;;;;;5064815;28;20044;-83
2022/06/14 11:36:35;;;;;;;9.70;1.80;;;17.80;99.90;;;;;;5072088;28;20120;-84
2022/06/14 11:39:18;;;;;;;4.47;1.30;;;17.80;99.90;;;;;;5072741;28;20051;-83
2022/06/14 11:41:48;;;;;;;4.30;1.40;;;17.80;99.90;;;;;;5072318;28;20047;-82
2022/06/14 11:44:50;;;;;;;2.83;1.10;;;17.80;99.90;;;;;;5072083;28;20059;-83
2022/06/14 11:47:38;;;;;;;3.67;1.27;;;17.70;99.90;;;;;;5072146;28;20377;-81
2022/06/14 11:50:38;;;;;;;3.35;0.90;;;17.60;99.90;;;;;;5070813;28;20045;-81
2022/06/14 11:53:13;;;;;;;4.28;1.23;;;17.60;99.90;;;;;;5072861;28;20466;-82
2022/06/14 11:55:48;;;;;;;5.20;1.52;;;17.50;99.90;;;;;;5071669;28;20039;-81
2022/06/14 11:58:53;;;;;;;7.57;1.52;;;17.50;99.90;;;;;;5065963;28;20052;-82
2022/06/14 12:01:47;;;;;;;5.13;1.00;;;17.40;99.90;;;;;;5068829;28;20051;-81
2022/06/14 12:04:28;;;;;;;6.97;1.23;;;17.40;99.90;;;;;;5070053;28;20127;-82
2022/06/14 12:07:05;;;;;;;3.55;1.10;;;17.30;99.90;;;;;;5053807;28;20045;-81
2022/06/14 12:09:32;;;;;;;4.22;1.20;;;17.30;99.90;;;;;;5069066;28;20033;-81
2022/06/14 12:12:21;;;;;;;3.03;1.15;;;17.30;99.90;;;;;;5069653;28;20097;-81
2022/06/14 12:14:59;;;;;;;3.83;1.13;;;17.30;99.90;;;;;;5060106;28;20097;-81
2022/06/14 12:17:36;;;;;;;4.90;1.08;;;17.30;99.90;;;;;;5068234;28;20041;-82
2022/06/14 12:20:15;;;;;;;3.45;0.80;;;17.30;99.90;;;;;;5052237;28;20042;-81
2022/06/14 12:22:55;;;;;;;2.78;1.08;;;17.30;99.90;;;;;;5052328;28;20045;-81
2022/06/14 12:28:34;;;;;;;4.70;1.67;;;17.50;99.90;;;;;;5086049;28;20047;-81
2022/06/14 12:31:10;;;;;;;10.75;1.77;;;17.50;99.90;;;;;;5071537;28;20131;-81
2022/06/14 12:33:46;;;;;;;7.10;1.42;;;17.60;99.90;;;;;;5074752;28;20446;-81
2022/06/14 12:36:20;;;;;;;7.90;1.38;;;17.60;99.90;;;;;;5092977;28;20211;-81
2022/06/14 12:38:51;;;;;;;14.52;1.30;;;17.60;99.90;;;;;;5075195;28;20048;-81
2022/06/14 12:41:31;;;;;;;8.35;1.50;;;17.70;99.90;;;;;;5077396;28;20055;-82
2022/06/14 12:44:15;;;;;;;6.97;1.52;;;17.80;99.90;;;;;;5077291;28;20106;-82
2022/06/14 12:46:44;;;;;;;5.22;1.40;;;17.80;99.90;;;;;;5075355;28;20127;-82
2022/06/14 12:49:33;;;;;;;5.60;1.20;;;17.90;99.90;;;;;;5075917;28;20056;-82
2022/06/14 12:52:11;;;;;;;3.20;1.50;;;17.90;99.90;;;;;;5074647;28;20052;-81
2022/06/14 12:54:59;;;;;;;3.60;1.10;;;18.00;99.90;;;;;;5077135;28;20062;-82
2022/06/14 12:58:02;;;;;;;6.43;1.45;;;18.00;99.90;;;;;;5075799;28;20060;-82
2022/06/14 13:00:52;;;;;;;3.05;1.00;;;18.00;99.90;;;;;;5076017;28;20518;-81
2022/06/14 13:03:35;;;;;;;7.75;1.30;;;18.00;99.90;;;;;;5075609;28;20132;-81
2022/06/14 13:06:30;;;;;;;5.38;1.20;;;18.00;99.90;;;;;;5074957;28;20051;-82
2022/06/14 13:09:18;;;;;;;4.93;1.40;;;18.10;99.90;;;;;;5076461;28;20052;-81
2022/06/14 13:12:16;;;;;;;5.72;1.75;;;18.10;99.90;;;;;;5075053;28;20053;-81
2022/06/14 13:14:56;;;;;;;4.18;1.20;;;18.20;99.90;;;;;;5043631;28;20056;-82
2022/06/14 13:17:39;;;;;;;30.23;2.65;;;18.20;99.90;;;;;;5056209;28;20377;-81
2022/06/14 13:20:35;;;;;;;4.05;1.00;;;18.30;99.90;;;;;;5055829;28;20044;-82
2022/06/14 13:23:12;;;;;;;4.72;1.73;;;18.40;99.90;;;;;;5055134;28;20088;-81
2022/06/14 13:26:04;;;;;;;3.75;1.30;;;18.50;99.90;;;;;;5056892;28;20041;-82
2022/06/14 13:28:48;;;;;;;2.63;1.27;;;18.60;99.90;;;;;;5055696;28;20072;-83
2022/06/14 13:31:30;;;;;;;3.15;1.30;;;18.70;99.90;;;;;;5076441;28;20076;-83
2022/06/14 13:33:59;;;;;;;5.13;1.50;;;18.80;99.90;;;;;;5075428;28;20060;-85
2022/06/14 13:36:43;;;;;;;2.90;1.20;;;18.90;99.90;;;;;;5074705;28;20080;-82
2022/06/14 13:39:36;;;;;;;4.53;1.30;;;19.10;99.90;;;;;;5075273;28;20059;-82
2022/06/14 13:42:09;;;;;;;3.92;1.10;;;19.30;99.90;;;;;;5073981;28;20072;-85
2022/06/14 13:44:36;;;;;;;5.15;1.60;;;19.30;99.90;;;;;;5057523;28;20131;-82
2022/06/14 13:47:18;;;;;;;3.83;1.33;;;19.40;99.90;;;;;;5074557;28;20048;-81
2022/06/14 13:49:53;;;;;;;6.75;1.85;;;19.40;99.90;;;;;;5073827;28;20109;-81
2022/06/14 13:52:45;;;;;;;8.80;1.85;;;19.40;99.90;;;;;;5075879;28;20047;-81
2022/06/14 13:55:35;;;;;;;3.97;1.77;;;19.40;99.90;;;;;;5068383;28;20565;-82
2022/06/14 13:58:14;;;;;;;4.38;1.40;;;19.60;99.90;;;;;;5075455;28;20048;-82
2022/06/14 14:00:53;;;;;;;4.35;2.22;;;19.70;99.90;;;;;;5074555;28;20098;-82
2022/06/14 14:03:32;;;;;;;4.60;1.30;;;19.70;99.90;;;;;;5075106;28;20112;-81